sensor_id;sensor_type;location;lat;lon;timestamp;temperature;humidity
8892;DHT22;4482;54.332;10.118;2023-03-14T00:02:13;10.20;99.90
8892;DHT22;4482;54.332;10.118;2023-03-14T00:04:40;10.20;99.90
8892;DHT22;4482;54.332;10.118;2023-03-14T00:07:09;10.20;99.90
8892;DHT22;4482;54.332;10.118;2023-03-14T00:09:36;10.10;99.90
8892;DHT22;4482;54.332;10.118;2023-03-14T00:12:03;10.10;99.90
8892;DHT22;4482;54.332;10.118;2023-03-14T00:14:30;10.10;99.90
8892;DHT22;4482;54.332;10.118;2023-03-14T00:16:57;10.10;99.90
8892;DHT22;4482;54.332;10.118;2023-03-14T00:19:24;10.10;99.90
8892;DHT22;4482;54.332;10.118;2023-03-14T00:21:50;10.10;99.90
8892;DHT22;4482;54.332;10.118;2023-03-14T00:24:18;10.10;99.90
8892;DHT22;4482;54.332;10.118;2023-03-14T00:26:45;10.00;99.90
8892;DHT22;4482;54.332;10.118;2023-03-14T00:29:12;10.00;99.90
8892;DHT22;4482;54.332;10.118;2023-03-14T00:31:38;10.00;99.90
8892;DHT22;4482;54.332;10.118;2023-03-14T00:34:06;10.00;99.90
8892;DHT22;4482;54.332;10.118;2023-03-14T00:36:32;10.00;99.90
8892;DHT22;4482;54.332;10.118;2023-03-14T00:38:59;10.10;99.90
8892;DHT22;4482;54.332;10.118;2023-03-14T00:41:27;10.10;99.90
8892;DHT22;4482;54.332;10.118;2023-03-14T00:43:54;10.10;99.90
8892;DHT22;4482;54.332;10.118;2023-03-14T00:46:20;10.10;99.90
8892;DHT22;4482;54.332;10.118;2023-03-14T00:48:47;10.10;99.90
8892;DHT22;4482;54.332;10.118;2023-03-14T00:51:14;10.10;99.90
8892;DHT22;4482;54.332;10.118;2023-03-14T00:53:41;10.10;99.90
8892;DHT22;4482;54.332;10.118;2023-03-14T00:56:08;10.10;99.90
8892;DHT22;4482;54.332;10.118;2023-03-14T00:58:37;10.10;99.90
8892;DHT22;4482;54.332;10.118;2023-03-14T01:01:07;10.00;99.90
8892;DHT22;4482;54.332;10.118;2023-03-14T01:03:34;10.00;99.90
8892;DHT22;4482;54.332;10.118;2023-03-14T01:06:06;10.00;99.90
8892;DHT22;4482;54.332;10.118;2023-03-14T01:08:33;10.00;99.90
8892;DHT22;4482;54.332;10.118;2023-03-14T01:10:59;10.00;99.90
8892;DHT22;4482;54.332;10.118;2023-03-14T01:13:26;10.00;99.90
8892;DHT22;4482;54.332;10.118;2023-03-14T01:15:54;10.00;99.90
8892;DHT22;4482;54.332;10.118;2023-03-14T01:18:20;9.90;99.90
8892;DHT22;4482;54.332;10.118;2023-03-14T01:20:47;9.90;99.90
8892;DHT22;4482;54.332;10.118;2023-03-14T01:23:14;9.90;99.90
8892;DHT22;4482;54.332;10.118;2023-03-14T01:25:40;9.90;99.90
8892;DHT22;4482;54.332;10.118;2023-03-14T01:28:07;9.80;99.90
8892;DHT22;4482;54.332;10.118;2023-03-14T01:30:34;9.80;99.90
8892;DHT22;4482;54.332;10.118;2023-03-14T01:33:02;9.80;99.90
8892;DHT22;4482;54.332;10.118;2023-03-14T01:35:28;9.80;99.90
8892;DHT22;4482;54.332;10.118;2023-03-14T01:37:55;9.80;99.90
8892;DHT22;4482;54.332;10.118;2023-03-14T01:40:22;9.80;99.90
8892;DHT22;4482;54.332;10.118;2023-03-14T01:42:53;9.80;99.90
8892;DHT22;4482;54.332;10.118;2023-03-14T01:48:07;9.90;99.90
8892;DHT22;4482;54.332;10.118;2023-03-14T01:50:34;9.90;99.90
8892;DHT22;4482;54.332;10.118;2023-03-14T01:53:00;9.90;99.90
8892;DHT22;4482;54.332;10.118;2023-03-14T01:55:27;10.00;99.90
8892;DHT22;4482;54.332;10.118;2023-03-14T01:57:55;9.90;99.90
8892;DHT22;4482;54.332;10.118;2023-03-14T02:00:23;9.90;99.90
8892;DHT22;4482;54.332;10.118;2023-03-14T02:02:51;10.00;99.90
8892;DHT22;4482;54.332;10.118;2023-03-14T02:05:20;10.00;99.90
8892;DHT22;4482;54.332;10.118;2023-03-14T02:07:48;9.90;99.90
8892;DHT22;4482;54.332;10.118;2023-03-14T02:10:16;9.90;99.90
8892;DHT22;4482;54.332;10.118;2023-03-14T02:12:44;9.90;99.90
8892;DHT22;4482;54.332;10.118;2023-03-14T02:15:11;9.80;99.90
8892;DHT22;4482;54.332;10.118;2023-03-14T02:17:37;9.80;99.90
8892;DHT22;4482;54.332;10.118;2023-03-14T02:20:13;9.80;99.90
8892;DHT22;4482;54.332;10.118;2023-03-14T02:22:44;9.80;99.90
8892;DHT22;4482;54.332;10.118;2023-03-14T02:25:12;9.80;99.90
8892;DHT22;4482;54.332;10.118;2023-03-14T02:27:41;9.90;99.90
8892;DHT22;4482;54.332;10.118;2023-03-14T02:30:08;9.90;99.90
8892;DHT22;4482;54.332;10.118;2023-03-14T02:32:37;9.80;99.90
8892;DHT22;4482;54.332;10.118;2023-03-14T02:35:06;9.80;99.90
8892;DHT22;4482;54.332;10.118;2023-03-14T02:37:34;9.80;99.90
8892;DHT22;4482;54.332;10.118;2023-03-14T02:40:02;9.80;99.90
8892;DHT22;4482;54.332;10.118;2023-03-14T02:42:29;9.70;99.90
8892;DHT22;4482;54.332;10.118;2023-03-14T02:44:59;9.80;99.90
8892;DHT22;4482;54.332;10.118;2023-03-14T02:47:28;9.80;99.90
8892;DHT22;4482;54.332;10.118;2023-03-14T02:49:57;9.80;99.90
8892;DHT22;4482;54.332;10.118;2023-03-14T02:52:25;9.80;99.90
8892;DHT22;4482;54.332;10.118;2023-03-14T02:54:52;9.80;99.90
8892;DHT22;4482;54.332;10.118;2023-03-14T02:57:18;9.80;99.90
8892;DHT22;4482;54.332;10.118;2023-03-14T02:59:45;9.80;99.90
8892;DHT22;4482;54.332;10.118;2023-03-14T03:02:13;9.80;99.90
8892;DHT22;4482;54.332;10.118;2023-03-14T03:04:39;9.80;99.90
8892;DHT22;4482;54.332;10.118;2023-03-14T03:07:06;9.70;99.90
8892;DHT22;4482;54.332;10.118;2023-03-14T03:09:33;9.70;99.90
8892;DHT22;4482;54.332;10.118;2023-03-14T03:12:00;9.70;99.90
8892;DHT22;4482;54.332;10.118;2023-03-14T03:14:27;9.70;99.90
8892;DHT22;4482;54.332;10.118;2023-03-14T03:16:53;9.80;99.90
8892;DHT22;4482;54.332;10.118;2023-03-14T03:19:21;9.80;99.90
8892;DHT22;4482;54.332;10.118;2023-03-14T03:21:48;9.70;99.90
8892;DHT22;4482;54.332;10.118;2023-03-14T03:24:14;9.70;99.90
8892;DHT22;4482;54.332;10.118;2023-03-14T03:26:41;9.80;99.90
8892;DHT22;4482;54.332;10.118;2023-03-14T03:29:08;9.80;99.90
8892;DHT22;4482;54.332;10.118;2023-03-14T03:31:36;9.80;99.90
8892;DHT22;4482;54.332;10.118;2023-03-14T03:34:02;9.80;99.90
8892;DHT22;4482;54.332;10.118;2023-03-14T03:36:30;9.90;99.90
8892;DHT22;4482;54.332;10.118;2023-03-14T03:38:57;9.90;99.90
8892;DHT22;4482;54.332;10.118;2023-03-14T03:41:24;9.90;99.90
8892;DHT22;4482;54.332;10.118;2023-03-14T03:43:50;9.90;99.90
8892;DHT22;4482;54.332;10.118;2023-03-14T03:46:17;10.00;99.90
8892;DHT22;4482;54.332;10.118;2023-03-14T03:48:44;10.00;99.90
8892;DHT22;4482;54.332;10.118;2023-03-14T03:51:12;10.00;99.90
8892;DHT22;4482;54.332;10.118;2023-03-14T03:53:40;10.00;99.90
8892;DHT22;4482;54.332;10.118;2023-03-14T03:56:07;10.10;99.90
8892;DHT22;4482;54.332;10.118;2023-03-14T03:58:34;10.10;99.90
8892;DHT22;4482;54.332;10.118;2023-03-14T04:01:00;10.10;99.90
8892;DHT22;4482;54.332;10.118;2023-03-14T04:03:27;10.10;99.90
8892;DHT22;4482;54.332;10.118;2023-03-14T04:06:00;10.10;99.90
8892;DHT22;4482;54.332;10.118;2023-03-14T04:08:27;10.10;99.90
8892;DHT22;4482;54.332;10.118;2023-03-14T04:10:58;10.00;99.90
8892;DHT22;4482;54.332;10.118;2023-03-14T04:13:25;10.00;99.90
8892;DHT22;4482;54.332;10.118;2023-03-14T04:15:51;10.00;99.90
8892;DHT22;4482;54.332;10.118;2023-03-14T04:18:18;9.90;99.90
8892;DHT22;4482;54.332;10.118;2023-03-14T04:20:45;9.80;99.90
8892;DHT22;4482;54.332;10.118;2023-03-14T04:23:11;9.70;99.90
8892;DHT22;4482;54.332;10.118;2023-03-14T04:25:38;9.60;99.90
8892;DHT22;4482;54.332;10.118;2023-03-14T04:28:06;9.60;99.90
8892;DHT22;4482;54.332;10.118;2023-03-14T04:30:33;9.50;99.90
8892;DHT22;4482;54.332;10.118;2023-03-14T04:32:59;9.50;99.90
8892;DHT22;4482;54.332;10.118;2023-03-14T04:35:26;9.40;99.90
8892;DHT22;4482;54.332;10.118;2023-03-14T04:37:53;9.40;99.90
8892;DHT22;4482;54.332;10.118;2023-03-14T04:40:19;9.30;99.90
8892;DHT22;4482;54.332;10.118;2023-03-14T04:42:46;9.30;99.90
8892;DHT22;4482;54.332;10.118;2023-03-14T04:45:14;9.20;99.90
8892;DHT22;4482;54.332;10.118;2023-03-14T04:47:41;9.20;99.90
8892;DHT22;4482;54.332;10.118;2023-03-14T04:50:08;9.20;99.90
8892;DHT22;4482;54.332;10.118;2023-03-14T04:52:35;9.20;99.90
8892;DHT22;4482;54.332;10.118;2023-03-14T04:55:02;9.20;99.90
8892;DHT22;4482;54.332;10.118;2023-03-14T04:57:29;9.20;99.90
8892;DHT22;4482;54.332;10.118;2023-03-14T04:59:55;9.10;99.90
8892;DHT22;4482;54.332;10.118;2023-03-14T05:02:23;9.10;99.90
8892;DHT22;4482;54.332;10.118;2023-03-14T05:04:50;9.10;99.90
8892;DHT22;4482;54.332;10.118;2023-03-14T05:07:17;9.00;99.90
8892;DHT22;4482;54.332;10.118;2023-03-14T05:09:43;9.00;99.90
8892;DHT22;4482;54.332;10.118;2023-03-14T05:12:10;9.00;99.90
8892;DHT22;4482;54.332;10.118;2023-03-14T05:14:37;8.90;99.90
8892;DHT22;4482;54.332;10.118;2023-03-14T05:17:04;8.90;99.90
8892;DHT22;4482;54.332;10.118;2023-03-14T05:19:32;8.90;99.90
8892;DHT22;4482;54.332;10.118;2023-03-14T05:21:59;8.90;99.90
8892;DHT22;4482;54.332;10.118;2023-03-14T05:24:25;8.90;99.90
8892;DHT22;4482;54.332;10.118;2023-03-14T05:26:52;8.80;99.90
8892;DHT22;4482;54.332;10.118;2023-03-14T05:29:19;8.80;99.90
8892;DHT22;4482;54.332;10.118;2023-03-14T05:31:46;8.70;99.90
8892;DHT22;4482;54.332;10.118;2023-03-14T05:34:12;8.70;99.90
8892;DHT22;4482;54.332;10.118;2023-03-14T05:36:40;8.70;99.90
8892;DHT22;4482;54.332;10.118;2023-03-14T05:39:07;8.70;99.90
8892;DHT22;4482;54.332;10.118;2023-03-14T05:41:34;8.70;99.90
8892;DHT22;4482;54.332;10.118;2023-03-14T05:44:01;8.60;99.90
8892;DHT22;4482;54.332;10.118;2023-03-14T05:46:27;8.60;99.90
8892;DHT22;4482;54.332;10.118;2023-03-14T05:48:56;8.50;99.90
8892;DHT22;4482;54.332;10.118;2023-03-14T05:51:22;8.50;99.90
8892;DHT22;4482;54.332;10.118;2023-03-14T05:53:51;8.50;99.90
8892;DHT22;4482;54.332;10.118;2023-03-14T05:56:18;8.40;99.90
8892;DHT22;4482;54.332;10.118;2023-03-14T05:58:44;8.40;99.90
8892;DHT22;4482;54.332;10.118;2023-03-14T06:01:11;8.40;99.90
8892;DHT22;4482;54.332;10.118;2023-03-14T06:03:38;8.40;99.90
8892;DHT22;4482;54.332;10.118;2023-03-14T06:06:05;8.40;99.90
8892;DHT22;4482;54.332;10.118;2023-03-14T06:08:31;8.40;99.90
8892;DHT22;4482;54.332;10.118;2023-03-14T06:11:01;8.30;99.90
8892;DHT22;4482;54.332;10.118;2023-03-14T06:13:28;8.30;99.90
8892;DHT22;4482;54.332;10.118;2023-03-14T06:15:55;8.40;99.90
8892;DHT22;4482;54.332;10.118;2023-03-14T06:18:22;8.40;99.90
8892;DHT22;4482;54.332;10.118;2023-03-14T06:20:49;8.40;99.90
8892;DHT22;4482;54.332;10.118;2023-03-14T06:23:15;8.40;99.90
8892;DHT22;4482;54.332;10.118;2023-03-14T06:25:42;8.50;99.90
8892;DHT22;4482;54.332;10.118;2023-03-14T06:28:10;8.60;99.90
8892;DHT22;4482;54.332;10.118;2023-03-14T06:30:37;8.70;99.90
8892;DHT22;4482;54.332;10.118;2023-03-14T06:33:03;8.70;99.90
8892;DHT22;4482;54.332;10.118;2023-03-14T06:35:30;8.70;99.90
8892;DHT22;4482;54.332;10.118;2023-03-14T06:37:57;8.80;99.90
8892;DHT22;4482;54.332;10.118;2023-03-14T06:40:24;8.80;99.90
8892;DHT22;4482;54.332;10.118;2023-03-14T06:42:50;8.90;99.90
8892;DHT22;4482;54.332;10.118;2023-03-14T06:45:18;9.00;99.90
8892;DHT22;4482;54.332;10.118;2023-03-14T06:47:45;9.00;99.90
8892;DHT22;4482;54.332;10.118;2023-03-14T06:50:12;9.00;99.90
8892;DHT22;4482;54.332;10.118;2023-03-14T06:52:38;9.00;99.90
8892;DHT22;4482;54.332;10.118;2023-03-14T06:55:07;9.00;99.90
8892;DHT22;4482;54.332;10.118;2023-03-14T06:57:33;9.00;99.90
8892;DHT22;4482;54.332;10.118;2023-03-14T07:00:00;9.00;99.90
8892;DHT22;4482;54.332;10.118;2023-03-14T07:02:28;9.10;99.90
8892;DHT22;4482;54.332;10.118;2023-03-14T07:04:55;9.20;99.90
8892;DHT22;4482;54.332;10.118;2023-03-14T07:07:21;9.20;99.90
8892;DHT22;4482;54.332;10.118;2023-03-14T07:09:48;9.30;99.90
8892;DHT22;4482;54.332;10.118;2023-03-14T07:12:15;9.30;99.90
8892;DHT22;4482;54.332;10.118;2023-03-14T07:14:42;9.50;99.90
8892;DHT22;4482;54.332;10.118;2023-03-14T07:17:08;9.50;99.90
8892;DHT22;4482;54.332;10.118;2023-03-14T07:19:36;9.40;99.90
8892;DHT22;4482;54.332;10.118;2023-03-14T07:22:03;9.40;99.90
8892;DHT22;4482;54.332;10.118;2023-03-14T07:24:30;9.40;99.90
8892;DHT22;4482;54.332;10.118;2023-03-14T07:26:57;9.40;99.90
8892;DHT22;4482;54.332;10.118;2023-03-14T07:29:24;9.40;99.90
8892;DHT22;4482;54.332;10.118;2023-03-14T07:31:51;9.40;99.90
8892;DHT22;4482;54.332;10.118;2023-03-14T07:34:17;9.40;99.90
8892;DHT22;4482;54.332;10.118;2023-03-14T07:36:47;9.40;99.90
8892;DHT22;4482;54.332;10.118;2023-03-14T07:39:13;9.30;99.90
8892;DHT22;4482;54.332;10.118;2023-03-14T07:41:40;9.30;99.90
8892;DHT22;4482;54.332;10.118;2023-03-14T07:44:07;9.30;99.90
8892;DHT22;4482;54.332;10.118;2023-03-14T07:46:33;9.30;99.90
8892;DHT22;4482;54.332;10.118;2023-03-14T07:49:00;9.30;99.90
8892;DHT22;4482;54.332;10.118;2023-03-14T07:51:27;9.30;99.90
8892;DHT22;4482;54.332;10.118;2023-03-14T07:53:55;9.40;99.90
8892;DHT22;4482;54.332;10.118;2023-03-14T07:56:21;9.40;99.90
8892;DHT22;4482;54.332;10.118;2023-03-14T07:58:48;9.40;99.90
8892;DHT22;4482;54.332;10.118;2023-03-14T08:01:15;9.40;99.90
8892;DHT22;4482;54.332;10.118;2023-03-14T08:03:42;9.40;99.90
8892;DHT22;4482;54.332;10.118;2023-03-14T08:06:08;9.50;99.90
8892;DHT22;4482;54.332;10.118;2023-03-14T08:08:35;9.50;99.90
8892;DHT22;4482;54.332;10.118;2023-03-14T08:11:04;9.50;99.90
8892;DHT22;4482;54.332;10.118;2023-03-14T08:13:30;9.60;99.90
8892;DHT22;4482;54.332;10.118;2023-03-14T08:15:57;9.60;99.90
8892;DHT22;4482;54.332;10.118;2023-03-14T08:18:24;9.50;99.90
8892;DHT22;4482;54.332;10.118;2023-03-14T08:20:51;9.40;99.90
8892;DHT22;4482;54.332;10.118;2023-03-14T08:23:17;9.40;99.90
8892;DHT22;4482;54.332;10.118;2023-03-14T08:25:44;9.40;99.90
8892;DHT22;4482;54.332;10.118;2023-03-14T08:28:12;9.40;99.90
8892;DHT22;4482;54.332;10.118;2023-03-14T08:30:39;9.30;99.90
8892;DHT22;4482;54.332;10.118;2023-03-14T08:33:05;9.30;99.90
8892;DHT22;4482;54.332;10.118;2023-03-14T08:35:32;9.30;99.90
8892;DHT22;4482;54.332;10.118;2023-03-14T08:37:58;9.30;99.90
8892;DHT22;4482;54.332;10.118;2023-03-14T08:40:25;9.30;99.90
8892;DHT22;4482;54.332;10.118;2023-03-14T08:42:52;9.30;99.90
8892;DHT22;4482;54.332;10.118;2023-03-14T08:45:20;9.30;99.90
8892;DHT22;4482;54.332;10.118;2023-03-14T08:47:47;9.20;99.90
8892;DHT22;4482;54.332;10.118;2023-03-14T08:50:13;9.20;99.90
8892;DHT22;4482;54.332;10.118;2023-03-14T08:52:40;9.20;99.90
8892;DHT22;4482;54.332;10.118;2023-03-14T08:55:07;9.20;99.90
8892;DHT22;4482;54.332;10.118;2023-03-14T08:57:34;8.50;99.90
8892;DHT22;4482;54.332;10.118;2023-03-14T09:00:02;7.90;99.90
8892;DHT22;4482;54.332;10.118;2023-03-14T09:02:31;7.30;99.90
8892;DHT22;4482;54.332;10.118;2023-03-14T09:04:58;7.00;99.90
8892;DHT22;4482;54.332;10.118;2023-03-14T09:07:25;6.90;99.90
8892;DHT22;4482;54.332;10.118;2023-03-14T09:09:51;6.70;99.90
8892;DHT22;4482;54.332;10.118;2023-03-14T09:12:18;6.30;99.90
8892;DHT22;4482;54.332;10.118;2023-03-14T09:14:45;5.80;99.90
8892;DHT22;4482;54.332;10.118;2023-03-14T09:17:11;5.60;99.90
8892;DHT22;4482;54.332;10.118;2023-03-14T09:19:39;5.20;99.90
8892;DHT22;4482;54.332;10.118;2023-03-14T09:22:06;5.10;99.90
8892;DHT22;4482;54.332;10.118;2023-03-14T09:24:33;4.90;99.90
8892;DHT22;4482;54.332;10.118;2023-03-14T09:26:59;4.80;99.90
8892;DHT22;4482;54.332;10.118;2023-03-14T09:29:26;4.70;99.90
8892;DHT22;4482;54.332;10.118;2023-03-14T09:31:52;4.60;99.90
8892;DHT22;4482;54.332;10.118;2023-03-14T09:34:19;4.50;99.90
8892;DHT22;4482;54.332;10.118;2023-03-14T09:36:47;4.30;99.90
8892;DHT22;4482;54.332;10.118;2023-03-14T09:39:14;4.10;99.90
8892;DHT22;4482;54.332;10.118;2023-03-14T09:41:43;4.00;99.90
8892;DHT22;4482;54.332;10.118;2023-03-14T09:44:10;3.70;99.90
8892;DHT22;4482;54.332;10.118;2023-03-14T09:46:39;3.60;99.90
8892;DHT22;4482;54.332;10.118;2023-03-14T09:49:09;3.60;99.90
8892;DHT22;4482;54.332;10.118;2023-03-14T09:51:37;3.70;99.90
8892;DHT22;4482;54.332;10.118;2023-03-14T09:54:05;3.60;99.90
8892;DHT22;4482;54.332;10.118;2023-03-14T09:56:32;3.60;99.90
8892;DHT22;4482;54.332;10.118;2023-03-14T09:59:00;3.60;99.90
8892;DHT22;4482;54.332;10.118;2023-03-14T10:01:29;3.70;99.90
8892;DHT22;4482;54.332;10.118;2023-03-14T10:03:57;3.80;99.90
8892;DHT22;4482;54.332;10.118;2023-03-14T10:06:25;3.80;99.90
8892;DHT22;4482;54.332;10.118;2023-03-14T10:08:52;3.70;99.90
8892;DHT22;4482;54.332;10.118;2023-03-14T10:11:21;3.80;99.90
8892;DHT22;4482;54.332;10.118;2023-03-14T10:13:49;3.90;99.90
8892;DHT22;4482;54.332;10.118;2023-03-14T10:16:16;3.90;99.90
8892;DHT22;4482;54.332;10.118;2023-03-14T10:18:44;4.00;99.90
8892;DHT22;4482;54.332;10.118;2023-03-14T10:21:16;4.10;99.90
8892;DHT22;4482;54.332;10.118;2023-03-14T10:23:44;4.20;99.90
8892;DHT22;4482;54.332;10.118;2023-03-14T10:26:13;4.30;99.90
8892;DHT22;4482;54.332;10.118;2023-03-14T10:28:43;4.40;99.90
8892;DHT22;4482;54.332;10.118;2023-03-14T10:31:10;4.50;99.90
8892;DHT22;4482;54.332;10.118;2023-03-14T10:33:37;4.60;99.90
8892;DHT22;4482;54.332;10.118;2023-03-14T10:36:05;4.70;99.90
8892;DHT22;4482;54.332;10.118;2023-03-14T10:38:33;4.70;99.90
8892;DHT22;4482;54.332;10.118;2023-03-14T10:41:00;4.70;99.90
8892;DHT22;4482;54.332;10.118;2023-03-14T10:43:27;4.70;99.90
8892;DHT22;4482;54.332;10.118;2023-03-14T10:45:58;4.70;99.90
8892;DHT22;4482;54.332;10.118;2023-03-14T10:48:30;4.90;99.90
8892;DHT22;4482;54.332;10.118;2023-03-14T10:50:58;4.90;99.90
8892;DHT22;4482;54.332;10.118;2023-03-14T10:53:32;4.90;99.90
8892;DHT22;4482;54.332;10.118;2023-03-14T10:55:59;5.10;99.90
8892;DHT22;4482;54.332;10.118;2023-03-14T10:58:29;5.10;99.90
8892;DHT22;4482;54.332;10.118;2023-03-14T11:01:07;4.90;99.90
8892;DHT22;4482;54.332;10.118;2023-03-14T11:03:36;4.90;99.90
8892;DHT22;4482;54.332;10.118;2023-03-14T11:06:06;5.10;99.90
8892;DHT22;4482;54.332;10.118;2023-03-14T11:08:35;5.40;99.90
8892;DHT22;4482;54.332;10.118;2023-03-14T11:11:07;5.70;99.90
8892;DHT22;4482;54.332;10.118;2023-03-14T11:13:38;5.80;99.90
8892;DHT22;4482;54.332;10.118;2023-03-14T11:16:08;5.70;99.90
8892;DHT22;4482;54.332;10.118;2023-03-14T11:18:42;5.60;99.90
8892;DHT22;4482;54.332;10.118;2023-03-14T11:21:12;5.70;99.90
8892;DHT22;4482;54.332;10.118;2023-03-14T11:23:40;5.90;99.90
8892;DHT22;4482;54.332;10.118;2023-03-14T11:26:13;6.10;99.90
8892;DHT22;4482;54.332;10.118;2023-03-14T11:28:43;6.40;99.90
8892;DHT22;4482;54.332;10.118;2023-03-14T11:31:15;6.50;99.90
8892;DHT22;4482;54.332;10.118;2023-03-14T11:33:46;6.60;99.90
8892;DHT22;4482;54.332;10.118;2023-03-14T11:36:14;6.60;99.90
8892;DHT22;4482;54.332;10.118;2023-03-14T11:38:43;6.70;99.90
8892;DHT22;4482;54.332;10.118;2023-03-14T11:41:14;6.70;99.90
8892;DHT22;4482;54.332;10.118;2023-03-14T11:43:41;6.70;99.90
8892;DHT22;4482;54.332;10.118;2023-03-14T11:46:09;6.80;99.90
8892;DHT22;4482;54.332;10.118;2023-03-14T11:48:40;6.70;99.90
8892;DHT22;4482;54.332;10.118;2023-03-14T11:51:12;6.90;99.90
8892;DHT22;4482;54.332;10.118;2023-03-14T11:53:40;7.00;99.90
8892;DHT22;4482;54.332;10.118;2023-03-14T11:56:09;7.00;99.90
8892;DHT22;4482;54.332;10.118;2023-03-14T11:58:38;6.90;99.90
8892;DHT22;4482;54.332;10.118;2023-03-14T12:01:09;6.90;99.90
8892;DHT22;4482;54.332;10.118;2023-03-14T12:03:41;6.90;99.90
8892;DHT22;4482;54.332;10.118;2023-03-14T12:06:11;6.90;99.90
8892;DHT22;4482;54.332;10.118;2023-03-14T12:08:46;6.90;99.90
8892;DHT22;4482;54.332;10.118;2023-03-14T12:11:17;6.80;99.90
8892;DHT22;4482;54.332;10.118;2023-03-14T12:13:45;6.90;99.90
8892;DHT22;4482;54.332;10.118;2023-03-14T12:16:20;6.90;99.90
8892;DHT22;4482;54.332;10.118;2023-03-14T12:18:52;6.80;99.90
8892;DHT22;4482;54.332;10.118;2023-03-14T12:21:19;6.80;99.90
8892;DHT22;4482;54.332;10.118;2023-03-14T12:23:48;6.60;99.90
8892;DHT22;4482;54.332;10.118;2023-03-14T12:26:16;6.60;99.90
8892;DHT22;4482;54.332;10.118;2023-03-14T12:28:43;6.50;99.90
8892;DHT22;4482;54.332;10.118;2023-03-14T12:34:02;6.00;99.90
8892;DHT22;4482;54.332;10.118;2023-03-14T12:36:50;5.60;99.90
8892;DHT22;4482;54.332;10.118;2023-03-14T12:39:24;5.20;99.90
8892;DHT22;4482;54.332;10.118;2023-03-14T12:41:52;5.20;99.90
8892;DHT22;4482;54.332;10.118;2023-03-14T12:44:38;5.40;99.90
8892;DHT22;4482;54.332;10.118;2023-03-14T12:49:49;5.50;99.90
8892;DHT22;4482;54.332;10.118;2023-03-14T12:52:17;5.60;99.90
8892;DHT22;4482;54.332;10.118;2023-03-14T12:54:45;5.80;99.90
8892;DHT22;4482;54.332;10.118;2023-03-14T12:57:20;6.10;99.90
8892;DHT22;4482;54.332;10.118;2023-03-14T12:59:52;6.40;99.90
8892;DHT22;4482;54.332;10.118;2023-03-14T13:02:20;6.60;99.90
8892;DHT22;4482;54.332;10.118;2023-03-14T13:04:50;6.80;99.90
8892;DHT22;4482;54.332;10.118;2023-03-14T13:07:35;7.00;99.90
8892;DHT22;4482;54.332;10.118;2023-03-14T13:10:15;7.20;99.90
8892;DHT22;4482;54.332;10.118;2023-03-14T13:12:44;7.30;99.90
8892;DHT22;4482;54.332;10.118;2023-03-14T13:15:14;7.20;99.90
8892;DHT22;4482;54.332;10.118;2023-03-14T13:17:41;7.10;99.90
8892;DHT22;4482;54.332;10.118;2023-03-14T13:20:11;7.20;99.90
8892;DHT22;4482;54.332;10.118;2023-03-14T13:22:39;7.30;99.90
8892;DHT22;4482;54.332;10.118;2023-03-14T13:25:12;7.20;99.90
8892;DHT22;4482;54.332;10.118;2023-03-14T13:27:38;7.30;99.90
8892;DHT22;4482;54.332;10.118;2023-03-14T13:30:15;7.30;99.90
8892;DHT22;4482;54.332;10.118;2023-03-14T13:32:43;7.30;99.90
8892;DHT22;4482;54.332;10.118;2023-03-14T13:35:19;7.30;99.90
8892;DHT22;4482;54.332;10.118;2023-03-14T13:37:46;7.20;99.90
8892;DHT22;4482;54.332;10.118;2023-03-14T13:40:20;7.20;99.90
8892;DHT22;4482;54.332;10.118;2023-03-14T13:42:47;7.20;99.90
8892;DHT22;4482;54.332;10.118;2023-03-14T13:45:14;7.20;99.90
8892;DHT22;4482;54.332;10.118;2023-03-14T13:47:40;7.10;99.90
8892;DHT22;4482;54.332;10.118;2023-03-14T13:50:12;7.10;99.90
8892;DHT22;4482;54.332;10.118;2023-03-14T13:52:40;7.10;99.90
8892;DHT22;4482;54.332;10.118;2023-03-14T13:55:13;7.30;99.90
8892;DHT22;4482;54.332;10.118;2023-03-14T13:57:44;7.30;99.90
8892;DHT22;4482;54.332;10.118;2023-03-14T14:00:17;7.00;99.90
8892;DHT22;4482;54.332;10.118;2023-03-14T14:02:44;6.80;99.90
8892;DHT22;4482;54.332;10.118;2023-03-14T14:05:11;6.80;99.90
8892;DHT22;4482;54.332;10.118;2023-03-14T14:07:38;6.80;99.90
8892;DHT22;4482;54.332;10.118;2023-03-14T14:10:08;6.90;99.90
8892;DHT22;4482;54.332;10.118;2023-03-14T14:12:36;6.90;99.90
8892;DHT22;4482;54.332;10.118;2023-03-14T14:15:05;7.00;99.90
8892;DHT22;4482;54.332;10.118;2023-03-14T14:17:34;6.90;99.90
8892;DHT22;4482;54.332;10.118;2023-03-14T14:20:02;6.90;99.90
8892;DHT22;4482;54.332;10.118;2023-03-14T14:22:30;6.90;99.90
8892;DHT22;4482;54.332;10.118;2023-03-14T14:24:57;6.90;99.90
8892;DHT22;4482;54.332;10.118;2023-03-14T14:27:27;7.00;99.90
8892;DHT22;4482;54.332;10.118;2023-03-14T14:29:57;7.00;99.90
8892;DHT22;4482;54.332;10.118;2023-03-14T14:32:24;6.90;99.90
8892;DHT22;4482;54.332;10.118;2023-03-14T14:34:56;7.10;99.90
8892;DHT22;4482;54.332;10.118;2023-03-14T14:37:24;7.10;99.90
8892;DHT22;4482;54.332;10.118;2023-03-14T14:39:51;7.10;99.90
8892;DHT22;4482;54.332;10.118;2023-03-14T14:42:19;7.20;99.90
8892;DHT22;4482;54.332;10.118;2023-03-14T14:44:49;7.10;99.90
8892;DHT22;4482;54.332;10.118;2023-03-14T14:47:17;7.10;99.90
8892;DHT22;4482;54.332;10.118;2023-03-14T14:49:45;7.00;99.90
8892;DHT22;4482;54.332;10.118;2023-03-14T14:52:14;6.90;99.90
8892;DHT22;4482;54.332;10.118;2023-03-14T14:54:43;6.90;99.90
8892;DHT22;4482;54.332;10.118;2023-03-14T14:57:17;6.80;99.90
8892;DHT22;4482;54.332;10.118;2023-03-14T14:59:44;6.60;99.90
8892;DHT22;4482;54.332;10.118;2023-03-14T15:02:27;6.70;99.90
8892;DHT22;4482;54.332;10.118;2023-03-14T15:04:54;6.70;99.90
8892;DHT22;4482;54.332;10.118;2023-03-14T15:07:20;6.60;99.90
8892;DHT22;4482;54.332;10.118;2023-03-14T15:09:47;6.50;99.90
8892;DHT22;4482;54.332;10.118;2023-03-14T15:12:14;6.30;99.90
8892;DHT22;4482;54.332;10.118;2023-03-14T15:14:41;6.20;99.90
8892;DHT22;4482;54.332;10.118;2023-03-14T15:17:08;6.20;99.90
8892;DHT22;4482;54.332;10.118;2023-03-14T15:19:38;6.20;99.90
8892;DHT22;4482;54.332;10.118;2023-03-14T15:22:05;6.20;99.90
8892;DHT22;4482;54.332;10.118;2023-03-14T15:24:35;6.20;99.90
8892;DHT22;4482;54.332;10.118;2023-03-14T15:27:02;6.20;99.90
8892;DHT22;4482;54.332;10.118;2023-03-14T15:29:28;6.30;99.90
8892;DHT22;4482;54.332;10.118;2023-03-14T15:31:55;6.40;99.90
8892;DHT22;4482;54.332;10.118;2023-03-14T15:34:22;6.40;99.90
8892;DHT22;4482;54.332;10.118;2023-03-14T15:36:50;6.20;99.90
8892;DHT22;4482;54.332;10.118;2023-03-14T15:39:16;6.20;99.90
8892;DHT22;4482;54.332;10.118;2023-03-14T15:41:43;6.20;99.90
8892;DHT22;4482;54.332;10.118;2023-03-14T15:44:10;6.20;99.90
8892;DHT22;4482;54.332;10.118;2023-03-14T15:46:36;6.20;99.90
8892;DHT22;4482;54.332;10.118;2023-03-14T15:49:03;6.10;99.90
8892;DHT22;4482;54.332;10.118;2023-03-14T15:51:30;6.10;99.90
8892;DHT22;4482;54.332;10.118;2023-03-14T15:53:58;6.10;99.90
8892;DHT22;4482;54.332;10.118;2023-03-14T15:56:25;6.20;99.90
8892;DHT22;4482;54.332;10.118;2023-03-14T15:58:56;6.20;99.90
8892;DHT22;4482;54.332;10.118;2023-03-14T16:01:22;6.30;99.90
8892;DHT22;4482;54.332;10.118;2023-03-14T16:03:49;6.40;99.90
8892;DHT22;4482;54.332;10.118;2023-03-14T16:06:18;6.20;99.90
8892;DHT22;4482;54.332;10.118;2023-03-14T16:08:44;6.10;99.90
8892;DHT22;4482;54.332;10.118;2023-03-14T16:11:13;6.00;99.90
8892;DHT22;4482;54.332;10.118;2023-03-14T16:13:43;5.90;99.90